Terminal Aerodrome Forecast
Issued by NWS

Home | Current Version | Previous Version | Graphics & Text | Print | Product List | Glossary On
Versions: 1 2 3 4 5 6 7 8 9 10 11 12 13 14 15 16 17
488
FTUS43 KICT 210831 AAA
TAFHUT
TAF AMD
KHUT 210831Z 2109/2206 18007KT P6SM VCTS SCT080CB OVC250
      TEMPO 2109/2112 5SM TSRA BKN070CB
     FM211200 19009KT P6SM VCTS OVC070CB
     FM211400 18009KT P6SM SCT080 OVC150
     FM211700 19013KT P6SM OVC150=

USA.gov is the U.S. government's official web portal to all federal, state and local government web resources and services.